createdAt,value
2019-06-10T00:01:26.735Z,101609.66
2019-06-10T00:03:56.069Z,101612.44
2019-06-10T00:06:25.366Z,101610.84
2019-06-10T00:08:55.955Z,101611.95
2019-06-10T00:11:25.674Z,101605.14
2019-06-10T00:14:07.391Z,101607.09
2019-06-10T00:16:36.822Z,101599.40
2019-06-10T00:21:54.401Z,101595.41
2019-06-10T00:29:47.326Z,101593.34
2019-06-10T00:32:16.640Z,101591.72
2019-06-10T00:34:45.946Z,101594.09
2019-06-10T00:37:15.225Z,101595.58
2019-06-10T00:39:44.525Z,101600.25
2019-06-10T00:42:15.222Z,101605.64
2019-06-10T00:44:44.842Z,101607.53
2019-06-10T00:47:15.197Z,101613.28
2019-06-10T00:49:45.131Z,101606.17
2019-06-10T00:52:14.468Z,101612.34
2019-06-10T00:54:43.854Z,101609.81
2019-06-10T00:57:13.771Z,101600.41
2019-06-10T00:59:44.149Z,101613.95
2019-06-10T01:02:14.549Z,101611.89
2019-06-10T01:04:44.496Z,101604.09
2019-06-10T01:07:14.845Z,101609.03
2019-06-10T01:09:44.836Z,101612.67
2019-06-10T01:12:14.946Z,101608.81
2019-06-10T01:14:56.553Z,101537.08
2019-06-10T01:17:25.861Z,101611.22
2019-06-10T01:20:15.942Z,101611.72
2019-06-10T01:22:45.220Z,101604.34
2019-06-10T01:25:15.044Z,101604.45
2019-06-10T01:27:45.492Z,101609.41
2019-06-10T01:32:50.648Z,101603.02
2019-06-10T01:35:21.174Z,101602.63
2019-06-10T01:37:51.983Z,101604.50
2019-06-10T01:40:21.508Z,101607.19
2019-06-10T01:42:50.797Z,101602.94
2019-06-10T01:45:21.302Z,101598.70
2019-06-10T01:47:51.244Z,101605.78
2019-06-10T01:50:21.780Z,101600.61
2019-06-10T01:52:51.723Z,101596.91
2019-06-10T01:55:21.847Z,101606.09
2019-06-10T01:58:14.694Z,101611.08
2019-06-10T02:01:01.462Z,101604.53
2019-06-10T02:03:31.584Z,101602.34
2019-06-10T02:06:02.028Z,101602.44
2019-06-10T02:08:31.787Z,101602.15
2019-06-10T02:11:02.309Z,101597.84
2019-06-10T02:13:32.858Z,101592.63
2019-06-10T02:19:04.314Z,101587.45
2019-06-10T02:24:23.551Z,101596.35
2019-06-10T02:26:53.995Z,101599.81
2019-06-10T02:29:23.696Z,101601.91
2019-06-10T02:31:54.273Z,101603.08
2019-06-10T02:34:27.325Z,101599.91
2019-06-10T02:36:54.618Z,101601.66
2019-06-10T02:39:32.234Z,101598.09
2019-06-10T02:44:37.500Z,101601.08
2019-06-10T02:47:04.193Z,101594.43
2019-06-10T02:49:50.743Z,101589.98
2019-06-10T02:52:20.066Z,101591.48
2019-06-10T02:55:31.034Z,101591.48
2019-06-10T02:57:59.333Z,101599.72
2019-06-10T03:00:39.618Z,101599.09
2019-06-10T03:02:59.626Z,101592.67
2019-06-10T03:05:47.972Z,101589.38
2019-06-10T03:08:18.492Z,101594.00
2019-06-10T03:10:48.276Z,101590.22
2019-06-10T03:13:17.649Z,101596.99
2019-06-10T03:18:25.987Z,101592.09
2019-06-10T03:20:56.515Z,101588.70
2019-06-10T03:26:15.165Z,101579.44
2019-06-10T03:28:45.063Z,101578.19
2019-06-10T03:31:15.562Z,101574.39
2019-06-10T03:33:47.753Z,101572.33
2019-06-10T03:36:16.364Z,101571.28
2019-06-10T03:38:45.701Z,101572.48
2019-06-10T03:41:14.997Z,101584.25
2019-06-10T03:43:44.268Z,101591.67
2019-06-10T03:46:13.862Z,101591.02
2019-06-10T03:48:44.605Z,101586.42
2019-06-10T03:51:13.882Z,101590.66
2019-06-10T03:53:43.149Z,101587.39
2019-06-10T03:56:12.979Z,101593.75
2019-06-10T03:58:43.433Z,101596.94
2019-06-10T04:01:12.714Z,101592.34
2019-06-10T04:03:42.806Z,101589.95
2019-06-10T04:06:13.262Z,101600.71
2019-06-10T04:08:44.035Z,101602.56
2019-06-10T04:11:13.344Z,101604.56
2019-06-10T04:13:43.216Z,101595.32
2019-06-10T04:16:13.683Z,101601.81
2019-06-10T04:18:43.254Z,101600.11
2019-06-10T04:21:14.027Z,101596.94
2019-06-10T04:23:43.347Z,101593.41
2019-06-10T04:26:12.989Z,101590.40
2019-06-10T04:28:43.709Z,101582.19
2019-06-10T04:31:13.308Z,101591.73
2019-06-10T04:33:44.046Z,101584.23
2019-06-10T04:36:13.668Z,101594.12
2019-06-10T04:38:44.384Z,101595.80
2019-06-10T04:41:13.683Z,101598.32
2019-06-10T04:43:43.397Z,101596.97
2019-06-10T04:46:26.780Z,101589.97
2019-06-10T04:48:56.483Z,101589.98
2019-06-10T04:51:26.868Z,101586.02
2019-06-10T04:53:56.793Z,101582.86
2019-06-10T04:56:27.553Z,101591.31
2019-06-10T04:58:57.100Z,101588.58
2019-06-10T05:01:27.441Z,101580.62
2019-06-10T05:03:57.396Z,101587.79
2019-06-10T05:09:14.977Z,101596.93
2019-06-10T05:11:44.270Z,101592.74
2019-06-10T05:14:13.614Z,101589.27
2019-06-10T05:17:02.271Z,101588.11
2019-06-10T05:19:33.775Z,101579.11
2019-06-10T05:22:03.237Z,101578.87
2019-06-10T05:27:34.621Z,101583.63
2019-06-10T05:33:13.432Z,101572.08
2019-06-10T05:35:43.615Z,101568.80
2019-06-10T05:38:13.081Z,101563.98
2019-06-10T05:40:42.797Z,101563.36
2019-06-10T05:43:13.064Z,101566.73
2019-06-10T05:45:43.227Z,101557.76
2019-06-10T05:48:16.606Z,101560.25
2019-06-10T05:50:43.555Z,101559.47
2019-06-10T05:53:13.165Z,101567.66
2019-06-10T05:55:43.988Z,101571.05
2019-06-10T05:58:13.321Z,101556.00
2019-06-10T06:00:42.924Z,101568.80
2019-06-10T06:03:13.640Z,101572.06
2019-06-10T06:05:43.721Z,101580.12
2019-06-10T06:08:13.025Z,101581.31
2019-06-10T06:10:42.548Z,101579.52
2019-06-10T06:13:12.659Z,101583.73
2019-06-10T06:15:42.823Z,101576.73
2019-06-10T06:18:14.099Z,101573.72
2019-06-10T06:20:43.725Z,101580.39
2019-06-10T06:23:14.227Z,101576.81
2019-06-10T06:25:46.870Z,101573.06
2019-06-10T06:28:16.212Z,101572.61
2019-06-10T06:30:45.583Z,101569.29
2019-06-10T06:33:37.657Z,101569.06
2019-06-10T06:36:04.935Z,101566.77
2019-06-10T06:38:36.822Z,101568.66
2019-06-10T06:41:05.487Z,101569.89
2019-06-10T06:43:38.969Z,101569.90
2019-06-10T06:46:05.851Z,101568.75
2019-06-10T06:48:38.449Z,101562.22
2019-06-10T06:51:08.728Z,101560.05
2019-06-10T06:53:45.445Z,101562.80
2019-06-10T06:56:12.403Z,101559.17
2019-06-10T06:58:43.290Z,101561.37
2019-06-10T07:01:14.677Z,101561.95
2019-06-10T07:06:57.657Z,101557.75
2019-06-10T07:18:48.752Z,101566.88
2019-06-10T07:21:13.121Z,101571.03
2019-06-10T07:23:46.496Z,101574.84
2019-06-10T07:26:12.871Z,101540.17
2019-06-10T07:28:46.645Z,101578.22
2019-06-10T07:31:23.257Z,101583.89
2019-06-10T07:33:46.973Z,101571.30
2019-06-10T07:36:15.252Z,101573.62
2019-06-10T07:41:24.568Z,101561.86
2019-06-10T07:43:53.884Z,101562.37
2019-06-10T07:47:02.720Z,101555.95
2019-06-10T07:49:33.782Z,101563.25
2019-06-10T07:52:19.494Z,101553.84
2019-06-10T07:55:05.109Z,101544.34
2019-06-10T07:57:35.665Z,101546.24
2019-06-10T08:00:16.712Z,101545.99
2019-06-10T08:05:23.393Z,101541.88
2019-06-10T08:13:08.487Z,101547.42
2019-06-10T08:15:37.802Z,101550.41
2019-06-10T08:18:25.977Z,101545.99
2019-06-10T08:20:55.434Z,101539.66
2019-06-10T08:23:24.870Z,101546.39
2019-06-10T08:26:13.133Z,101544.61
2019-06-10T08:28:46.365Z,101548.56
2019-06-10T08:31:13.439Z,101554.72
2019-06-10T08:33:46.227Z,101548.41
2019-06-10T08:36:13.891Z,101550.97
2019-06-10T08:38:45.328Z,101552.43
2019-06-10T08:41:14.298Z,101545.54
2019-06-10T08:43:45.567Z,101542.28
2019-06-10T08:46:15.535Z,101540.67
2019-06-10T08:49:03.874Z,101541.20
2019-06-10T08:51:33.188Z,101541.42
2019-06-10T08:54:02.603Z,101541.86
2019-06-10T08:56:54.124Z,101533.73
2019-06-10T08:59:23.089Z,101536.77
2019-06-10T09:01:56.873Z,101542.92
2019-06-10T09:04:24.401Z,101502.72
2019-06-10T09:06:53.967Z,101543.78
2019-06-10T09:09:24.765Z,101537.04
2019-06-10T09:11:54.813Z,101535.31
2019-06-10T09:14:25.139Z,101522.37
2019-06-10T09:19:47.891Z,101522.47
2019-06-10T09:22:15.873Z,101517.12
2019-06-10T09:24:49.045Z,101517.59
2019-06-10T09:27:16.359Z,101514.88
2019-06-10T09:29:49.227Z,101513.80
2019-06-10T09:32:16.779Z,101506.39
2019-06-10T09:37:23.366Z,101501.73
2019-06-10T09:39:59.060Z,101509.92
2019-06-10T09:45:33.235Z,101509.02
2019-06-10T09:51:12.534Z,101512.63
2019-06-10T09:53:52.441Z,101503.03
2019-06-10T09:56:26.271Z,101508.77
2019-06-10T09:59:14.568Z,101507.48
2019-06-10T10:01:48.456Z,101503.51
2019-06-10T10:04:15.254Z,101508.75
2019-06-10T10:07:23.868Z,101502.17
2019-06-10T10:10:32.798Z,101506.08
2019-06-10T10:13:02.701Z,101496.06
2019-06-10T10:15:34.503Z,101498.73
2019-06-10T10:21:03.033Z,101506.97
2019-06-10T10:23:48.400Z,101503.42
2019-06-10T10:26:03.465Z,101493.70
2019-06-10T10:28:33.618Z,101501.98
2019-06-10T10:31:04.747Z,101492.25
2019-06-10T10:33:34.996Z,101492.61
2019-06-10T10:36:04.334Z,101490.92
2019-06-10T10:38:34.847Z,101486.14
2019-06-10T10:41:24.246Z,101479.94
2019-06-10T10:43:57.796Z,101487.41
2019-06-10T10:46:25.674Z,101492.03
2019-06-10T10:48:56.494Z,101494.81
2019-06-10T10:54:21.204Z,101475.05
2019-06-10T10:56:33.400Z,101482.99
2019-06-10T10:59:02.584Z,101487.41
2019-06-10T11:01:33.397Z,101480.45
2019-06-10T11:04:03.866Z,101493.75
2019-06-10T11:06:34.043Z,101445.45
2019-06-10T11:09:03.514Z,101481.03
2019-06-10T11:11:33.376Z,101485.15
2019-06-10T11:17:05.530Z,101474.33
2019-06-10T11:19:55.785Z,101476.69
2019-06-10T11:25:00.331Z,101479.12
2019-06-10T11:27:30.909Z,101475.22
2019-06-10T11:32:57.237Z,101476.25
2019-06-10T11:38:14.780Z,101476.59
2019-06-10T11:43:33.076Z,101464.50
2019-06-10T11:46:07.400Z,101464.46
2019-06-10T11:48:34.393Z,101469.97
2019-06-10T11:51:04.743Z,101466.75
2019-06-10T11:53:34.993Z,101465.50
2019-06-10T11:56:04.419Z,101464.37
2019-06-10T11:58:54.944Z,101461.91
2019-06-10T12:01:23.850Z,101457.25
2019-06-10T12:03:55.877Z,101458.34
2019-06-10T12:06:24.335Z,101454.00
2019-06-10T12:11:28.652Z,101444.97
2019-06-10T12:14:02.877Z,101456.66
2019-06-10T12:21:49.754Z,101436.12
2019-06-10T12:24:19.501Z,101430.17
2019-06-10T12:26:49.818Z,101429.48
2019-06-10T12:29:22.430Z,101430.84
2019-06-10T12:31:54.082Z,101425.35
2019-06-10T12:34:22.810Z,101423.13
2019-06-10T12:36:56.396Z,101422.73
2019-06-10T12:39:24.529Z,101410.91
2019-06-10T12:41:56.692Z,101414.23
2019-06-10T12:44:24.875Z,101417.94
2019-06-10T12:46:57.908Z,101411.88
2019-06-10T12:49:25.243Z,101417.75
2019-06-10T12:51:55.846Z,101412.55
2019-06-10T12:54:26.187Z,101416.66
2019-06-10T12:56:58.001Z,101403.06
2019-06-10T12:59:27.630Z,101390.02
2019-06-10T13:01:58.054Z,101388.31
2019-06-10T13:04:27.981Z,101385.45
2019-06-10T13:07:36.625Z,101382.08
2019-06-10T13:10:26.544Z,101383.30
2019-06-10T13:12:55.941Z,101380.00
2019-06-10T13:15:25.255Z,101374.70
2019-06-10T13:17:56.061Z,101381.40
2019-06-10T13:20:25.698Z,101386.45
2019-06-10T13:22:56.219Z,101395.25
2019-06-10T13:28:14.475Z,101383.77
2019-06-10T13:30:43.803Z,101377.90
2019-06-10T13:33:14.695Z,101368.69
2019-06-10T13:38:19.407Z,101376.29
2019-06-10T13:40:48.727Z,101374.49
2019-06-10T13:43:18.054Z,101370.19
2019-06-10T13:45:47.372Z,101368.48
2019-06-10T13:48:16.737Z,101376.09
2019-06-10T13:50:46.037Z,101371.91
2019-06-10T13:53:15.361Z,101383.63
2019-06-10T13:55:44.687Z,101373.97
2019-06-10T13:58:14.676Z,101367.69
2019-06-10T14:00:56.333Z,101390.49
2019-06-10T14:03:25.646Z,101372.13
2019-06-10T14:05:58.557Z,101362.77
2019-06-10T14:08:26.064Z,101366.53
2019-06-10T14:10:55.438Z,101374.83
2019-06-10T14:13:24.748Z,101359.68
2019-06-10T14:15:54.591Z,101363.97
2019-06-10T14:18:25.161Z,101364.25
2019-06-10T14:20:54.556Z,101355.10
2019-06-10T14:23:23.875Z,101361.55
2019-06-10T14:25:53.533Z,101357.62
2019-06-10T14:28:39.054Z,101365.11
2019-06-10T14:30:55.342Z,101365.18
2019-06-10T14:33:24.653Z,101368.31
2019-06-10T14:35:54.024Z,101359.55
2019-06-10T14:38:23.398Z,101357.86
2019-06-10T14:40:52.800Z,101361.14
2019-06-10T14:43:23.221Z,101358.03
2019-06-10T14:45:53.658Z,101353.27
2019-06-10T14:48:24.328Z,101350.47
2019-06-10T14:50:53.740Z,101346.94
2019-06-10T14:53:23.344Z,101345.37
2019-06-10T14:55:54.206Z,101344.81
2019-06-10T14:58:23.545Z,101340.77
2019-06-10T15:00:54.269Z,101349.13
2019-06-10T15:03:23.977Z,101329.44
2019-06-10T15:05:53.434Z,101325.97
2019-06-10T15:08:23.242Z,101318.36
2019-06-10T15:10:53.769Z,101325.11
2019-06-10T15:13:23.762Z,101322.76
2019-06-10T15:15:54.390Z,101325.17
2019-06-10T15:18:24.091Z,101314.48
2019-06-10T15:20:54.917Z,101319.25
2019-06-10T15:23:24.399Z,101305.80
2019-06-10T15:25:56.844Z,101318.91
2019-06-10T15:28:24.848Z,101317.70
2019-06-10T15:30:54.188Z,101318.21
2019-06-10T15:33:24.064Z,101317.36
2019-06-10T15:35:54.631Z,101317.36
2019-06-10T15:38:32.790Z,101313.05
2019-06-10T15:43:37.951Z,101316.22
2019-06-10T15:46:07.359Z,101324.02
2019-06-10T15:48:36.723Z,101327.88
2019-06-10T15:51:06.062Z,101315.84
2019-06-10T15:53:35.475Z,101313.67
2019-06-10T15:56:14.430Z,101317.70
2019-06-10T15:58:35.871Z,101320.53
2019-06-10T16:01:05.230Z,101331.63
2019-06-10T16:03:34.772Z,101330.03
2019-06-10T16:08:39.133Z,101316.80
2019-06-10T16:11:08.535Z,101312.00
2019-06-10T16:13:37.937Z,101309.39
2019-06-10T16:16:07.271Z,101314.28
2019-06-10T16:18:36.576Z,101311.48
2019-06-10T16:21:05.891Z,101314.71
2019-06-10T16:23:35.187Z,101308.32
2019-06-10T16:26:04.519Z,101304.62
2019-06-10T16:28:33.823Z,101295.75
2019-06-10T16:31:03.141Z,101299.78
2019-06-10T16:33:33.863Z,101296.02
2019-06-10T16:36:03.583Z,101292.59
2019-06-10T16:39:13.089Z,101296.69
2019-06-10T16:41:43.014Z,101299.05
2019-06-10T16:50:34.362Z,101291.80
2019-06-10T16:53:03.704Z,101296.03
2019-06-10T16:55:33.461Z,101300.76
2019-06-10T16:58:02.970Z,101289.67
2019-06-10T17:00:34.740Z,101287.42
2019-06-10T17:03:15.191Z,101295.17
2019-06-10T17:05:44.715Z,101292.36
2019-06-10T17:08:14.025Z,101284.73
2019-06-10T17:10:43.711Z,101289.55
2019-06-10T17:16:03.637Z,101284.16
2019-06-10T17:18:34.308Z,101283.04
2019-06-10T17:21:04.259Z,101295.47
2019-06-10T17:23:36.593Z,101288.63
2019-06-10T17:26:05.962Z,101280.97
2019-06-10T17:28:36.847Z,101274.34
2019-06-10T17:31:06.422Z,101280.19
2019-06-10T17:33:36.217Z,101279.02
2019-06-10T17:36:07.921Z,101279.66
2019-06-10T17:38:37.353Z,101276.84
2019-06-10T17:43:42.912Z,101278.06
2019-06-10T17:46:16.801Z,101283.17
2019-06-10T17:49:05.154Z,101279.78
2019-06-10T17:51:35.692Z,101280.48
2019-06-10T17:54:05.518Z,101282.22
2019-06-10T17:56:36.318Z,101281.28
2019-06-10T17:59:05.870Z,101271.64
2019-06-10T18:01:35.665Z,101269.41
2019-06-10T18:04:18.119Z,101265.72
2019-06-10T18:06:58.888Z,101268.63
2019-06-10T18:09:28.231Z,101265.85
2019-06-10T18:11:57.519Z,101262.18
2019-06-10T18:14:28.051Z,101265.02
2019-06-10T18:16:57.860Z,101260.42
2019-06-10T18:19:28.276Z,101247.66
2019-06-10T18:21:58.300Z,101256.21
2019-06-10T18:24:29.265Z,101259.91
2019-06-10T18:26:58.739Z,101261.85
2019-06-10T18:29:29.165Z,101269.16
2019-06-10T18:31:59.055Z,101261.25
2019-06-10T18:34:29.733Z,101253.57
2019-06-10T18:36:59.562Z,101259.23
2019-06-10T18:39:29.381Z,101262.05
2019-06-10T18:41:59.949Z,101268.02
2019-06-10T18:44:29.741Z,101247.44
2019-06-10T18:47:02.802Z,101245.09
2019-06-10T18:49:33.983Z,101253.63
2019-06-10T18:52:02.511Z,101243.05
2019-06-10T18:54:35.651Z,101241.96
2019-06-10T18:57:04.824Z,101245.02
2019-06-10T19:02:22.795Z,101247.06
2019-06-10T19:04:54.701Z,101195.46
2019-06-10T19:07:24.722Z,101248.67
2019-06-10T19:09:54.037Z,101251.59
2019-06-10T19:12:42.633Z,101253.02
2019-06-10T19:18:15.535Z,101248.51
2019-06-10T19:20:45.248Z,101258.50
2019-06-10T19:23:16.519Z,101259.84
2019-06-10T19:25:46.704Z,101259.45
2019-06-10T19:28:16.042Z,101263.59
2019-06-10T19:31:04.394Z,101265.27
2019-06-10T19:33:36.420Z,101264.89
2019-06-10T19:36:04.809Z,101271.81
2019-06-10T19:38:35.499Z,101272.36
2019-06-10T19:41:05.186Z,101283.92
2019-06-10T19:46:23.432Z,101285.55
2019-06-10T19:48:59.545Z,101301.27
2019-06-10T19:51:24.879Z,101300.75
2019-06-10T19:56:43.735Z,101301.91
2019-06-10T19:59:13.553Z,101299.15
2019-06-10T20:01:47.895Z,101301.52
2019-06-10T20:04:17.862Z,101294.45
2019-06-10T20:06:50.416Z,101296.30
2019-06-10T20:09:16.499Z,101297.46
2019-06-10T20:11:47.422Z,101300.47
2019-06-10T20:14:17.051Z,101295.70
2019-06-10T20:16:46.492Z,101286.89
2019-06-10T20:19:35.715Z,101286.32
2019-06-10T20:22:05.772Z,101291.23
2019-06-10T20:24:36.344Z,101281.66
2019-06-10T20:27:06.191Z,101284.03
2019-06-10T20:29:35.771Z,101284.45
2019-06-10T20:32:06.572Z,101297.86
2019-06-10T20:34:37.052Z,101288.23
2019-06-10T20:37:07.014Z,101279.82
2019-06-10T20:39:36.348Z,101296.03
2019-06-10T20:42:05.767Z,101296.72
2019-06-10T20:44:35.070Z,101299.70
2019-06-10T20:47:04.509Z,101298.37
2019-06-10T20:49:34.096Z,101297.98
2019-06-10T20:52:10.784Z,101275.57
2019-06-10T20:54:34.454Z,101290.59
2019-06-10T20:57:04.336Z,101282.79
2019-06-10T20:59:34.764Z,101281.01
2019-06-10T21:02:04.045Z,101288.17
2019-06-10T21:04:34.212Z,101288.95
2019-06-10T21:10:05.317Z,101282.53
2019-06-10T21:12:34.606Z,101282.34
2019-06-10T21:15:03.919Z,101279.88
2019-06-10T21:17:33.406Z,101275.62
2019-06-10T21:20:03.376Z,101274.02
2019-06-10T21:22:33.756Z,101277.72
2019-06-10T21:25:03.056Z,101274.80
2019-06-10T21:27:32.834Z,101277.56
2019-06-10T21:30:11.132Z,101279.96
2019-06-10T21:32:34.466Z,101284.33
2019-06-10T21:37:52.194Z,101268.33
2019-06-10T21:40:21.467Z,101270.73
2019-06-10T21:42:52.811Z,101279.66
2019-06-10T21:45:22.892Z,101277.70
2019-06-10T21:47:54.259Z,101283.70
2019-06-10T21:50:23.962Z,101265.74
2019-06-10T21:52:54.678Z,101266.31
2019-06-10T21:55:24.271Z,101277.64
2019-06-10T21:57:55.171Z,101269.58
2019-06-10T22:03:20.381Z,101267.05
2019-06-10T22:05:49.664Z,101263.71
2019-06-10T22:08:19.015Z,101260.67
2019-06-10T22:10:48.309Z,101255.88
2019-06-10T22:13:17.592Z,101251.73
2019-06-10T22:15:48.020Z,101243.22
2019-06-10T22:18:17.914Z,101247.97
2019-06-10T22:20:48.809Z,101199.14
2019-06-10T22:23:18.259Z,101239.41
2019-06-10T22:25:48.760Z,101240.47
2019-06-10T22:28:18.707Z,101236.11
2019-06-10T22:30:49.038Z,101239.42
2019-06-10T22:33:19.085Z,101240.58
2019-06-10T22:35:49.528Z,101247.80
2019-06-10T22:38:19.420Z,101246.56
2019-06-10T22:40:48.904Z,101246.48
2019-06-10T22:43:18.211Z,101248.38
2019-06-10T22:45:47.493Z,101248.94
2019-06-10T22:48:16.797Z,101246.50
2019-06-10T22:50:46.941Z,101248.39
2019-06-10T22:53:17.130Z,101250.28
2019-06-10T22:55:46.431Z,101254.27
2019-06-10T22:58:15.723Z,101260.55
2019-06-10T23:00:45.051Z,101252.39
2019-06-10T23:03:14.323Z,101255.61
2019-06-10T23:05:43.661Z,101255.44
2019-06-10T23:08:13.007Z,101256.36
2019-06-10T23:13:30.724Z,101258.19
2019-06-10T23:16:02.492Z,101252.74
2019-06-10T23:18:32.083Z,101256.00
2019-06-10T23:21:04.377Z,101248.02
2019-06-10T23:23:33.076Z,101249.13
2019-06-10T23:26:02.989Z,101239.08
2019-06-10T23:28:33.446Z,101239.83
2019-06-10T23:31:05.233Z,101222.36
2019-06-10T23:33:33.803Z,101211.91
2019-06-10T23:36:04.057Z,101207.14
2019-06-10T23:38:34.163Z,101214.94
2019-06-10T23:41:22.533Z,101209.90
2019-06-10T23:43:53.025Z,101202.98
2019-06-10T23:46:22.861Z,101215.95
2019-06-10T23:48:53.225Z,101216.64
2019-06-10T23:51:23.147Z,101214.16
2019-06-10T23:56:42.700Z,101221.37
2019-06-10T23:59:12.125Z,101224.39
